sensor_id;sensor_type;location;lat;lon;timestamp;pressure;altitude;pressure_sealevel;temperature;humidity
51715;BME280;39115;59.332;18.034;2023-02-18T00:01:27;97624.75;;;5.35;79.28
51715;BME280;39115;59.332;18.034;2023-02-18T00:03:50;97618.66;;;5.35;79.47
51715;BME280;39115;59.332;18.034;2023-02-18T00:06:17;97617.03;;;5.34;78.91
51715;BME280;39115;59.332;18.034;2023-02-18T00:08:38;97622.47;;;5.32;79.00
51715;BME280;39115;59.332;18.034;2023-02-18T00:10:58;97626.13;;;5.31;79.02
51715;BME280;39115;59.332;18.034;2023-02-18T00:13:18;97630.94;;;5.28;79.29
51715;BME280;39115;59.332;18.034;2023-02-18T00:15:39;97637.34;;;5.25;79.24
51715;BME280;39115;59.332;18.034;2023-02-18T00:18:00;97646.81;;;5.19;79.29
51715;BME280;39115;59.332;18.034;2023-02-18T00:20:20;97646.97;;;5.18;79.06
51715;BME280;39115;59.332;18.034;2023-02-18T00:22:41;97642.72;;;5.17;79.03
51715;BME280;39115;59.332;18.034;2023-02-18T00:25:01;97654.25;;;5.16;79.38
51715;BME280;39115;59.332;18.034;2023-02-18T00:27:22;97652.75;;;5.13;79.24
51715;BME280;39115;59.332;18.034;2023-02-18T00:29:43;97667.13;;;5.11;78.78
51715;BME280;39115;59.332;18.034;2023-02-18T00:32:03;97663.03;;;5.08;79.43
51715;BME280;39115;59.332;18.034;2023-02-18T00:34:24;97663.03;;;5.08;79.42
51715;BME280;39115;59.332;18.034;2023-02-18T00:36:44;97674.56;;;5.07;79.54
51715;BME280;39115;59.332;18.034;2023-02-18T00:39:08;97692.41;;;5.05;78.85
51715;BME280;39115;59.332;18.034;2023-02-18T00:41:29;97686.00;;;4.99;78.80
51715;BME280;39115;59.332;18.034;2023-02-18T00:43:50;97690.78;;;4.96;79.23
51715;BME280;39115;59.332;18.034;2023-02-18T00:46:11;97690.47;;;4.90;79.33
51715;BME280;39115;59.332;18.034;2023-02-18T00:48:33;97705.66;;;4.88;79.42
51715;BME280;39115;59.332;18.034;2023-02-18T00:50:54;97709.28;;;4.87;79.33
51715;BME280;39115;59.332;18.034;2023-02-18T00:53:14;97707.63;;;4.86;78.99
51715;BME280;39115;59.332;18.034;2023-02-18T00:55:43;97713.09;;;4.85;79.38
51715;BME280;39115;59.332;18.034;2023-02-18T00:58:03;97715.25;;;4.81;79.09
51715;BME280;39115;59.332;18.034;2023-02-18T01:00:24;97722.50;;;4.79;79.62
51715;BME280;39115;59.332;18.034;2023-02-18T01:02:45;97725.94;;;4.80;79.45
51715;BME280;39115;59.332;18.034;2023-02-18T01:05:05;97733.84;;;4.80;79.03
51715;BME280;39115;59.332;18.034;2023-02-18T01:07:26;97736.66;;;4.78;78.99
51715;BME280;39115;59.332;18.034;2023-02-18T01:09:46;97736.84;;;4.77;79.24
51715;BME280;39115;59.332;18.034;2023-02-18T01:12:07;97733.88;;;4.71;78.96
51715;BME280;39115;59.332;18.034;2023-02-18T01:14:27;97735.88;;;4.69;79.03
51715;BME280;39115;59.332;18.034;2023-02-18T01:16:48;97748.59;;;4.66;79.18
51715;BME280;39115;59.332;18.034;2023-02-18T01:19:08;97745.47;;;4.62;79.00
51715;BME280;39115;59.332;18.034;2023-02-18T01:21:29;97754.50;;;4.59;78.85
51715;BME280;39115;59.332;18.034;2023-02-18T01:23:49;97748.75;;;4.56;78.84
51715;BME280;39115;59.332;18.034;2023-02-18T01:26:10;97756.84;;;4.54;78.94
51715;BME280;39115;59.332;18.034;2023-02-18T01:28:30;97762.91;;;4.55;79.00
51715;BME280;39115;59.332;18.034;2023-02-18T01:30:52;97761.94;;;4.48;78.89
51715;BME280;39115;59.332;18.034;2023-02-18T01:33:12;97775.78;;;4.41;78.40
51715;BME280;39115;59.332;18.034;2023-02-18T01:35:33;97791.47;;;4.35;78.10
51715;BME280;39115;59.332;18.034;2023-02-18T01:37:56;97790.63;;;4.26;78.55
51715;BME280;39115;59.332;18.034;2023-02-18T01:40:20;97800.69;;;4.22;78.37
51715;BME280;39115;59.332;18.034;2023-02-18T01:42:41;97808.94;;;4.19;78.44
51715;BME280;39115;59.332;18.034;2023-02-18T01:48:33;97807.59;;;3.99;78.20
51715;BME280;39115;59.332;18.034;2023-02-18T01:51:03;97828.50;;;3.92;78.11
51715;BME280;39115;59.332;18.034;2023-02-18T01:53:32;97830.16;;;3.85;78.20
51715;BME280;39115;59.332;18.034;2023-02-18T01:55:55;97853.81;;;3.76;77.88
51715;BME280;39115;59.332;18.034;2023-02-18T01:58:16;97847.56;;;3.69;77.61
51715;BME280;39115;59.332;18.034;2023-02-18T02:00:37;97855.56;;;3.59;77.68
51715;BME280;39115;59.332;18.034;2023-02-18T02:02:58;97873.94;;;3.51;77.73
51715;BME280;39115;59.332;18.034;2023-02-18T02:05:20;97859.00;;;3.43;77.62
51715;BME280;39115;59.332;18.034;2023-02-18T02:07:41;97873.59;;;3.38;77.81
51715;BME280;39115;59.332;18.034;2023-02-18T02:10:03;97868.63;;;3.26;77.91
51715;BME280;39115;59.332;18.034;2023-02-18T02:20:35;97894.97;;;3.08;77.57
51715;BME280;39115;59.332;18.034;2023-02-18T02:37:04;97912.81;;;2.70;77.79
51715;BME280;39115;59.332;18.034;2023-02-18T02:39:37;97928.06;;;2.66;77.68
51715;BME280;39115;59.332;18.034;2023-02-18T02:47:42;97926.16;;;2.50;77.87
51715;BME280;39115;59.332;18.034;2023-02-18T02:52:43;97931.00;;;2.45;77.60
51715;BME280;39115;59.332;18.034;2023-02-18T02:55:09;97941.16;;;2.40;77.53
51715;BME280;39115;59.332;18.034;2023-02-18T03:00:00;97944.84;;;2.29;77.72
51715;BME280;39115;59.332;18.034;2023-02-18T03:08:13;97950.84;;;2.21;77.68
51715;BME280;39115;59.332;18.034;2023-02-18T03:10:55;97958.16;;;2.18;77.77
51715;BME280;39115;59.332;18.034;2023-02-18T03:15:56;97974.91;;;2.17;78.05
51715;BME280;39115;59.332;18.034;2023-02-18T03:20:57;97991.47;;;2.17;77.55
51715;BME280;39115;59.332;18.034;2023-02-18T03:23:24;97997.84;;;2.15;77.54
51715;BME280;39115;59.332;18.034;2023-02-18T03:25:47;97998.66;;;2.15;77.75
51715;BME280;39115;59.332;18.034;2023-02-18T03:28:10;97986.66;;;2.13;77.59
51715;BME280;39115;59.332;18.034;2023-02-18T03:30:41;97998.97;;;2.12;77.56
51715;BME280;39115;59.332;18.034;2023-02-18T03:33:04;97999.78;;;2.13;77.71
51715;BME280;39115;59.332;18.034;2023-02-18T03:35:27;98006.69;;;2.14;77.71
51715;BME280;39115;59.332;18.034;2023-02-18T03:37:53;98007.50;;;2.14;77.67
51715;BME280;39115;59.332;18.034;2023-02-18T03:40:20;98019.00;;;2.13;77.42
51715;BME280;39115;59.332;18.034;2023-02-18T03:42:40;98015.53;;;2.13;77.64
51715;BME280;39115;59.332;18.034;2023-02-18T03:45:01;98032.41;;;2.10;77.87
51715;BME280;39115;59.332;18.034;2023-02-18T03:47:24;98027.31;;;2.09;77.80
51715;BME280;39115;59.332;18.034;2023-02-18T03:49:45;98031.06;;;2.06;77.75
51715;BME280;39115;59.332;18.034;2023-02-18T03:52:06;98049.44;;;2.06;77.80
51715;BME280;39115;59.332;18.034;2023-02-18T03:54:26;98043.50;;;2.04;77.93
51715;BME280;39115;59.332;18.034;2023-02-18T03:56:47;98045.44;;;2.02;77.58
51715;BME280;39115;59.332;18.034;2023-02-18T03:59:08;98041.31;;;1.99;77.74
51715;BME280;39115;59.332;18.034;2023-02-18T04:01:30;98059.84;;;1.98;77.96
51715;BME280;39115;59.332;18.034;2023-02-18T04:03:51;98057.34;;;1.96;78.02
51715;BME280;39115;59.332;18.034;2023-02-18T04:06:12;98064.69;;;1.93;78.00
51715;BME280;39115;59.332;18.034;2023-02-18T04:08:32;98068.25;;;1.92;78.35
51715;BME280;39115;59.332;18.034;2023-02-18T04:10:53;98072.69;;;1.91;78.00
51715;BME280;39115;59.332;18.034;2023-02-18T04:13:14;98080.72;;;1.89;77.96
51715;BME280;39115;59.332;18.034;2023-02-18T04:15:36;98104.59;;;1.86;77.83
51715;BME280;39115;59.332;18.034;2023-02-18T04:17:57;98088.88;;;1.86;78.19
51715;BME280;39115;59.332;18.034;2023-02-18T04:20:18;98108.19;;;1.85;78.06
51715;BME280;39115;59.332;18.034;2023-02-18T04:22:38;98104.75;;;1.85;78.22
51715;BME280;39115;59.332;18.034;2023-02-18T04:24:59;98095.09;;;1.85;77.80
51715;BME280;39115;59.332;18.034;2023-02-18T04:27:19;98104.75;;;1.85;78.00
51715;BME280;39115;59.332;18.034;2023-02-18T04:29:40;98095.25;;;1.84;78.20
51715;BME280;39115;59.332;18.034;2023-02-18T04:32:00;98106.69;;;1.83;78.14
51715;BME280;39115;59.332;18.034;2023-02-18T04:34:21;98114.56;;;1.83;78.15
51715;BME280;39115;59.332;18.034;2023-02-18T04:36:41;98132.78;;;1.84;78.23
51715;BME280;39115;59.332;18.034;2023-02-18T04:39:02;98146.59;;;1.86;78.03
51715;BME280;39115;59.332;18.034;2023-02-18T04:41:23;98132.50;;;1.87;77.62
51715;BME280;39115;59.332;18.034;2023-02-18T04:43:43;98145.47;;;1.89;78.00
51715;BME280;39115;59.332;18.034;2023-02-18T04:46:04;98136.91;;;1.87;78.06
51715;BME280;39115;59.332;18.034;2023-02-18T04:48:24;98169.09;;;1.89;77.85
51715;BME280;39115;59.332;18.034;2023-02-18T04:50:45;98148.94;;;1.89;77.84
51715;BME280;39115;59.332;18.034;2023-02-18T04:53:05;98163.69;;;1.90;78.01
51715;BME280;39115;59.332;18.034;2023-02-18T04:55:26;98178.63;;;1.90;77.93
51715;BME280;39115;59.332;18.034;2023-02-18T04:57:46;98216.31;;;1.89;77.77
51715;BME280;39115;59.332;18.034;2023-02-18T05:00:08;98184.00;;;1.88;77.86
51715;BME280;39115;59.332;18.034;2023-02-18T05:02:29;98208.59;;;1.87;77.96
51715;BME280;39115;59.332;18.034;2023-02-18T05:04:49;98193.53;;;1.89;77.87
51715;BME280;39115;59.332;18.034;2023-02-18T05:07:10;98196.16;;;1.89;77.89
51715;BME280;39115;59.332;18.034;2023-02-18T05:09:31;98200.41;;;1.90;77.73
51715;BME280;39115;59.332;18.034;2023-02-18T05:11:51;98209.94;;;1.92;77.72
51715;BME280;39115;59.332;18.034;2023-02-18T05:14:12;98212.56;;;1.92;77.63
51715;BME280;39115;59.332;18.034;2023-02-18T05:16:33;98227.34;;;1.93;77.68
51715;BME280;39115;59.332;18.034;2023-02-18T05:18:53;98238.69;;;1.93;77.64
51715;BME280;39115;59.332;18.034;2023-02-18T05:21:14;98222.09;;;1.93;77.75
51715;BME280;39115;59.332;18.034;2023-02-18T05:23:34;98233.44;;;1.93;77.75
51715;BME280;39115;59.332;18.034;2023-02-18T05:25:55;98236.88;;;1.94;77.72
51715;BME280;39115;59.332;18.034;2023-02-18T05:28:15;98255.25;;;1.94;77.78
51715;BME280;39115;59.332;18.034;2023-02-18T05:30:36;98250.84;;;1.94;77.56
51715;BME280;39115;59.332;18.034;2023-02-18T05:32:57;98259.69;;;1.93;77.56
51715;BME280;39115;59.332;18.034;2023-02-18T05:35:17;98269.31;;;1.93;77.51
51715;BME280;39115;59.332;18.034;2023-02-18T05:37:38;98266.72;;;1.93;77.49
51715;BME280;39115;59.332;18.034;2023-02-18T05:39:58;98271.00;;;1.94;77.59
51715;BME280;39115;59.332;18.034;2023-02-18T05:42:19;98283.97;;;1.95;77.73
51715;BME280;39115;59.332;18.034;2023-02-18T05:44:40;98259.53;;;1.95;77.27
51715;BME280;39115;59.332;18.034;2023-02-18T05:47:03;98271.84;;;1.94;77.16
51715;BME280;39115;59.332;18.034;2023-02-18T05:49:25;98275.28;;;1.95;77.63
51715;BME280;39115;59.332;18.034;2023-02-18T05:51:45;98293.50;;;1.96;77.39
51715;BME280;39115;59.332;18.034;2023-02-18T05:54:06;98304.00;;;1.96;77.17
51715;BME280;39115;59.332;18.034;2023-02-18T05:56:26;98306.59;;;1.96;77.31
51715;BME280;39115;59.332;18.034;2023-02-18T05:58:47;98312.72;;;1.97;77.29
51715;BME280;39115;59.332;18.034;2023-02-18T06:01:08;98320.56;;;1.97;77.10
51715;BME280;39115;59.332;18.034;2023-02-18T06:03:28;98310.09;;;1.97;77.08
51715;BME280;39115;59.332;18.034;2023-02-18T06:05:49;98306.59;;;1.96;77.26
51715;BME280;39115;59.332;18.034;2023-02-18T06:08:10;98324.97;;;1.96;77.25
51715;BME280;39115;59.332;18.034;2023-02-18T06:10:30;98352.06;;;1.97;77.12
51715;BME280;39115;59.332;18.034;2023-02-18T06:12:51;98336.44;;;1.95;77.06
51715;BME280;39115;59.332;18.034;2023-02-18T06:15:11;98336.44;;;1.95;77.36
51715;BME280;39115;59.332;18.034;2023-02-18T06:17:32;98356.47;;;1.96;77.17
51715;BME280;39115;59.332;18.034;2023-02-18T06:19:52;98353.84;;;1.96;77.44
51715;BME280;39115;59.332;18.034;2023-02-18T06:22:13;98357.31;;;1.97;77.25
51715;BME280;39115;59.332;18.034;2023-02-18T06:24:34;98358.81;;;1.99;77.21
51715;BME280;39115;59.332;18.034;2023-02-18T06:26:54;98374.56;;;1.99;77.08
51715;BME280;39115;59.332;18.034;2023-02-18T06:29:15;98377.91;;;2.01;77.22
51715;BME280;39115;59.332;18.034;2023-02-18T06:31:35;98372.50;;;2.03;77.00
51715;BME280;39115;59.332;18.034;2023-02-18T06:33:56;98383.81;;;2.03;77.11
51715;BME280;39115;59.332;18.034;2023-02-18T06:36:16;98393.91;;;2.08;77.05
51715;BME280;39115;59.332;18.034;2023-02-18T06:38:38;98401.78;;;2.08;76.84
51715;BME280;39115;59.332;18.034;2023-02-18T06:40:59;98398.03;;;2.11;76.78
51715;BME280;39115;59.332;18.034;2023-02-18T06:43:20;98409.25;;;2.13;76.65
51715;BME280;39115;59.332;18.034;2023-02-18T06:45:41;98425.00;;;2.13;76.89
51715;BME280;39115;59.332;18.034;2023-02-18T06:48:01;98406.47;;;2.14;76.72
51715;BME280;39115;59.332;18.034;2023-02-18T06:50:22;98420.44;;;2.15;76.55
51715;BME280;39115;59.332;18.034;2023-02-18T06:52:43;98428.88;;;2.18;76.30
51715;BME280;39115;59.332;18.034;2023-02-18T06:55:04;98437.56;;;2.19;76.41
51715;BME280;39115;59.332;18.034;2023-02-18T06:57:25;98427.06;;;2.19;76.41
51715;BME280;39115;59.332;18.034;2023-02-18T06:59:46;98467.28;;;2.19;76.65
51715;BME280;39115;59.332;18.034;2023-02-18T07:02:06;98469.91;;;2.19;76.66
51715;BME280;39115;59.332;18.034;2023-02-18T07:04:27;98453.31;;;2.19;76.38
51715;BME280;39115;59.332;18.034;2023-02-18T07:06:47;98470.03;;;2.18;76.59
51715;BME280;39115;59.332;18.034;2023-02-18T07:09:08;98471.69;;;2.19;76.56
51715;BME280;39115;59.332;18.034;2023-02-18T07:11:28;98457.88;;;2.17;76.30
51715;BME280;39115;59.332;18.034;2023-02-18T07:13:49;98482.47;;;2.16;76.21
51715;BME280;39115;59.332;18.034;2023-02-18T07:16:10;98480.53;;;2.18;76.26
51715;BME280;39115;59.332;18.034;2023-02-18T07:18:30;98505.00;;;2.18;76.41
51715;BME280;39115;59.332;18.034;2023-02-18T07:20:51;98490.19;;;2.17;76.41
51715;BME280;39115;59.332;18.034;2023-02-18T07:23:11;98481.38;;;2.18;76.18
51715;BME280;39115;59.332;18.034;2023-02-18T07:25:32;98496.16;;;2.19;76.14
51715;BME280;39115;59.332;18.034;2023-02-18T07:27:52;98480.41;;;2.19;76.11
51715;BME280;39115;59.332;18.034;2023-02-18T07:30:13;98497.81;;;2.20;76.04
51715;BME280;39115;59.332;18.034;2023-02-18T07:32:34;98489.66;;;2.24;75.81
51715;BME280;39115;59.332;18.034;2023-02-18T07:34:54;98496.41;;;2.26;75.73
51715;BME280;39115;59.332;18.034;2023-02-18T07:37:15;98513.97;;;2.26;75.69
51715;BME280;39115;59.332;18.034;2023-02-18T07:39:38;98512.88;;;2.28;75.73
51715;BME280;39115;59.332;18.034;2023-02-18T07:41:59;98511.34;;;2.26;75.69
51715;BME280;39115;59.332;18.034;2023-02-18T07:44:19;98550.88;;;2.24;75.53
51715;BME280;39115;59.332;18.034;2023-02-18T07:46:41;98510.53;;;2.25;75.69
51715;BME280;39115;59.332;18.034;2023-02-18T07:49:01;98523.53;;;2.27;75.61
51715;BME280;39115;59.332;18.034;2023-02-18T07:51:22;98537.34;;;2.29;75.58
51715;BME280;39115;59.332;18.034;2023-02-18T07:53:43;98528.47;;;2.30;75.61
51715;BME280;39115;59.332;18.034;2023-02-18T07:56:04;98537.91;;;2.32;75.38
51715;BME280;39115;59.332;18.034;2023-02-18T07:58:28;98532.50;;;2.34;75.17
51715;BME280;39115;59.332;18.034;2023-02-18T08:00:49;98547.31;;;2.35;75.19
51715;BME280;39115;59.332;18.034;2023-02-18T08:03:10;98544.69;;;2.35;74.98
51715;BME280;39115;59.332;18.034;2023-02-18T08:05:31;98563.88;;;2.35;75.07
51715;BME280;39115;59.332;18.034;2023-02-18T08:07:51;98544.53;;;2.36;74.71
51715;BME280;39115;59.332;18.034;2023-02-18T08:10:12;98559.19;;;2.39;74.80
51715;BME280;39115;59.332;18.034;2023-02-18T08:12:33;98571.19;;;2.42;75.13
51715;BME280;39115;59.332;18.034;2023-02-18T08:14:53;98563.22;;;2.43;74.87
51715;BME280;39115;59.332;18.034;2023-02-18T08:17:14;98570.94;;;2.45;74.77
51715;BME280;39115;59.332;18.034;2023-02-18T08:19:34;98600.66;;;2.45;74.75
51715;BME280;39115;59.332;18.034;2023-02-18T08:21:55;98603.28;;;2.45;74.40
51715;BME280;39115;59.332;18.034;2023-02-18T08:24:15;98597.22;;;2.45;74.34
51715;BME280;39115;59.332;18.034;2023-02-18T08:26:36;98587.66;;;2.44;74.50
51715;BME280;39115;59.332;18.034;2023-02-18T08:28:56;98603.28;;;2.45;74.68
51715;BME280;39115;59.332;18.034;2023-02-18T08:31:20;98590.03;;;2.47;74.40
51715;BME280;39115;59.332;18.034;2023-02-18T08:33:41;98599.44;;;2.49;74.32
51715;BME280;39115;59.332;18.034;2023-02-18T08:36:06;98599.19;;;2.52;74.44
51715;BME280;39115;59.332;18.034;2023-02-18T08:38:26;98592.25;;;2.51;74.15
51715;BME280;39115;59.332;18.034;2023-02-18T08:40:48;98595.69;;;2.52;74.17
51715;BME280;39115;59.332;18.034;2023-02-18T08:43:09;98616.72;;;2.52;74.23
51715;BME280;39115;59.332;18.034;2023-02-18T08:45:29;98609.69;;;2.52;74.26
51715;BME280;39115;59.332;18.034;2023-02-18T08:47:50;98626.97;;;2.55;73.96
51715;BME280;39115;59.332;18.034;2023-02-18T08:50:10;98619.09;;;2.55;73.89
51715;BME280;39115;59.332;18.034;2023-02-18T08:52:31;98612.72;;;2.58;73.88
51715;BME280;39115;59.332;18.034;2023-02-18T08:54:51;98629.19;;;2.60;73.56
51715;BME280;39115;59.332;18.034;2023-02-18T08:57:12;98635.41;;;2.59;73.71
51715;BME280;39115;59.332;18.034;2023-02-18T08:59:33;98645.75;;;2.60;73.69
51715;BME280;39115;59.332;18.034;2023-02-18T09:01:53;98664.00;;;2.62;73.58
51715;BME280;39115;59.332;18.034;2023-02-18T09:04:14;98665.66;;;2.63;73.62
51715;BME280;39115;59.332;18.034;2023-02-18T09:06:38;98661.94;;;2.65;73.57
51715;BME280;39115;59.332;18.034;2023-02-18T09:08:59;98666.13;;;2.68;73.34
51715;BME280;39115;59.332;18.034;2023-02-18T09:11:19;98663.34;;;2.69;73.23
51715;BME280;39115;59.332;18.034;2023-02-18T09:13:40;98655.72;;;2.76;73.23
51715;BME280;39115;59.332;18.034;2023-02-18T09:16:04;98674.72;;;2.80;73.16
51715;BME280;39115;59.332;18.034;2023-02-18T09:18:25;98662.25;;;2.82;72.81
51715;BME280;39115;59.332;18.034;2023-02-18T09:20:45;98680.38;;;2.85;73.03
51715;BME280;39115;59.332;18.034;2023-02-18T09:23:06;98675.69;;;2.89;72.87
51715;BME280;39115;59.332;18.034;2023-02-18T09:25:26;98691.16;;;2.92;72.65
51715;BME280;39115;59.332;18.034;2023-02-18T09:27:47;98690.34;;;2.91;72.59
51715;BME280;39115;59.332;18.034;2023-02-18T09:30:07;98687.47;;;2.94;72.84
51715;BME280;39115;59.332;18.034;2023-02-18T09:32:28;98699.50;;;2.97;72.78
51715;BME280;39115;59.332;18.034;2023-02-18T09:34:48;98709.59;;;3.02;72.57
51715;BME280;39115;59.332;18.034;2023-02-18T09:37:09;98712.25;;;3.02;72.24
51715;BME280;39115;59.332;18.034;2023-02-18T09:39:30;98705.16;;;3.02;72.35
51715;BME280;39115;59.332;18.034;2023-02-18T09:41:52;98711.28;;;3.03;72.42
51715;BME280;39115;59.332;18.034;2023-02-18T09:49:20;98726.50;;;3.09;72.51
51715;BME280;39115;59.332;18.034;2023-02-18T09:51:42;98741.97;;;3.12;72.23
51715;BME280;39115;59.332;18.034;2023-02-18T09:54:03;98761.22;;;3.12;72.06
51715;BME280;39115;59.332;18.034;2023-02-18T09:56:30;98734.81;;;3.14;71.82
51715;BME280;39115;59.332;18.034;2023-02-18T09:58:51;98729.53;;;3.14;71.86
51715;BME280;39115;59.332;18.034;2023-02-18T10:01:32;98750.03;;;3.20;71.89
51715;BME280;39115;59.332;18.034;2023-02-18T10:03:58;98731.34;;;3.23;71.71
51715;BME280;39115;59.332;18.034;2023-02-18T10:06:26;98754.75;;;3.26;71.93
51715;BME280;39115;59.332;18.034;2023-02-18T10:08:51;98740.63;;;3.27;72.05
51715;BME280;39115;59.332;18.034;2023-02-18T10:11:32;98745.75;;;3.29;71.56
51715;BME280;39115;59.332;18.034;2023-02-18T10:13:55;98754.31;;;3.31;71.44
51715;BME280;39115;59.332;18.034;2023-02-18T10:16:17;98769.69;;;3.36;71.50
51715;BME280;39115;59.332;18.034;2023-02-18T10:18:40;98763.34;;;3.38;71.21
51715;BME280;39115;59.332;18.034;2023-02-18T10:21:08;98759.63;;;3.41;71.39
51715;BME280;39115;59.332;18.034;2023-02-18T10:23:31;98780.25;;;3.45;71.23
51715;BME280;39115;59.332;18.034;2023-02-18T10:25:54;98784.50;;;3.46;71.27
51715;BME280;39115;59.332;18.034;2023-02-18T10:28:15;98775.66;;;3.47;71.23
51715;BME280;39115;59.332;18.034;2023-02-18T10:30:41;98788.81;;;3.47;71.27
51715;BME280;39115;59.332;18.034;2023-02-18T10:33:16;98771.91;;;3.50;70.90
51715;BME280;39115;59.332;18.034;2023-02-18T10:38:18;98792.56;;;3.55;71.04
51715;BME280;39115;59.332;18.034;2023-02-18T10:43:45;98786.06;;;3.59;71.29
51715;BME280;39115;59.332;18.034;2023-02-18T10:49:00;98811.97;;;3.63;71.14
51715;BME280;39115;59.332;18.034;2023-02-18T10:51:28;98771.25;;;3.68;70.91
51715;BME280;39115;59.332;18.034;2023-02-18T10:53:50;98781.34;;;3.72;70.84
51715;BME280;39115;59.332;18.034;2023-02-18T10:58:50;98795.75;;;3.78;70.43
51715;BME280;39115;59.332;18.034;2023-02-18T11:01:16;98783.16;;;3.82;70.64
51715;BME280;39115;59.332;18.034;2023-02-18T11:03:43;98805.47;;;3.87;70.30
51715;BME280;39115;59.332;18.034;2023-02-18T11:06:06;98796.03;;;3.94;69.79
51715;BME280;39115;59.332;18.034;2023-02-18T11:08:42;98812.09;;;4.01;69.90
51715;BME280;39115;59.332;18.034;2023-02-18T11:11:15;98797.28;;;4.10;69.86
51715;BME280;39115;59.332;18.034;2023-02-18T11:13:39;98799.88;;;4.20;69.70
51715;BME280;39115;59.332;18.034;2023-02-18T11:16:03;98803.59;;;4.27;69.55
51715;BME280;39115;59.332;18.034;2023-02-18T11:20:55;98799.97;;;4.38;68.89
51715;BME280;39115;59.332;18.034;2023-02-18T11:23:20;98798.72;;;4.42;68.60
51715;BME280;39115;59.332;18.034;2023-02-18T11:25:52;98865.97;;;4.46;68.80
51715;BME280;39115;59.332;18.034;2023-02-18T11:30:38;98827.16;;;4.48;68.33
51715;BME280;39115;59.332;18.034;2023-02-18T11:33:14;98813.81;;;4.50;67.86
51715;BME280;39115;59.332;18.034;2023-02-18T11:35:37;98833.22;;;4.49;68.05
51715;BME280;39115;59.332;18.034;2023-02-18T11:37:59;98858.47;;;4.51;67.97
51715;BME280;39115;59.332;18.034;2023-02-18T11:40:23;98835.59;;;4.52;68.06
51715;BME280;39115;59.332;18.034;2023-02-18T11:42:45;98836.56;;;4.51;68.16
51715;BME280;39115;59.332;18.034;2023-02-18T11:45:05;98844.31;;;4.52;67.79
51715;BME280;39115;59.332;18.034;2023-02-18T11:47:34;98857.22;;;4.55;67.49
51715;BME280;39115;59.332;18.034;2023-02-18T11:50:21;98857.06;;;4.57;67.76
51715;BME280;39115;59.332;18.034;2023-02-18T11:52:46;98882.72;;;4.55;67.52
51715;BME280;39115;59.332;18.034;2023-02-18T11:55:22;98889.53;;;4.57;67.89
51715;BME280;39115;59.332;18.034;2023-02-18T12:00:45;98885.59;;;4.71;67.73
51715;BME280;39115;59.332;18.034;2023-02-18T12:05:54;98891.53;;;4.83;67.21
51715;BME280;39115;59.332;18.034;2023-02-18T12:08:23;98897.91;;;4.90;66.67
51715;BME280;39115;59.332;18.034;2023-02-18T12:10:49;98877.88;;;4.98;66.33
51715;BME280;39115;59.332;18.034;2023-02-18T12:13:57;98870.94;;;5.06;66.33
51715;BME280;39115;59.332;18.034;2023-02-18T12:24:31;98911.47;;;5.05;66.22
51715;BME280;39115;59.332;18.034;2023-02-18T12:27:15;98897.03;;;5.00;65.68
51715;BME280;39115;59.332;18.034;2023-02-18T12:30:17;98921.75;;;4.99;66.28
51715;BME280;39115;59.332;18.034;2023-02-18T12:33:15;98922.59;;;4.99;66.06
51715;BME280;39115;59.332;18.034;2023-02-18T12:36:09;98909.41;;;4.99;66.03
51715;BME280;39115;59.332;18.034;2023-02-18T12:41:24;98923.97;;;5.03;65.75
51715;BME280;39115;59.332;18.034;2023-02-18T12:55:20;98939.75;;;5.13;65.17
51715;BME280;39115;59.332;18.034;2023-02-18T13:00:59;98936.13;;;5.24;65.11
51715;BME280;39115;59.332;18.034;2023-02-18T13:03:59;98966.66;;;5.27;64.92
51715;BME280;39115;59.332;18.034;2023-02-18T13:07:02;98940.97;;;5.29;64.48
51715;BME280;39115;59.332;18.034;2023-02-18T13:09:32;98929.41;;;5.30;64.17
51715;BME280;39115;59.332;18.034;2023-02-18T13:12:22;98926.50;;;5.33;64.59
51715;BME280;39115;59.332;18.034;2023-02-18T13:14:52;98957.53;;;5.49;63.51
51715;BME280;39115;59.332;18.034;2023-02-18T13:17:18;98950.56;;;5.58;63.28
51715;BME280;39115;59.332;18.034;2023-02-18T13:19:53;98943.88;;;5.63;63.43
51715;BME280;39115;59.332;18.034;2023-02-18T13:22:17;98955.69;;;5.59;63.31
51715;BME280;39115;59.332;18.034;2023-02-18T13:24:44;98974.75;;;5.53;62.99
51715;BME280;39115;59.332;18.034;2023-02-18T13:27:21;98964.78;;;5.47;63.15
51715;BME280;39115;59.332;18.034;2023-02-18T13:35:16;98974.53;;;5.36;62.80
51715;BME280;39115;59.332;18.034;2023-02-18T13:37:57;98976.63;;;5.33;62.75
51715;BME280;39115;59.332;18.034;2023-02-18T13:40:25;98983.19;;;5.29;62.89
51715;BME280;39115;59.332;18.034;2023-02-18T13:42:52;98972.63;;;5.29;62.93
51715;BME280;39115;59.332;18.034;2023-02-18T13:45:24;99000.00;;;5.28;62.75
51715;BME280;39115;59.332;18.034;2023-02-18T13:47:46;98986.91;;;5.26;62.37
51715;BME280;39115;59.332;18.034;2023-02-18T13:52:42;98983.84;;;5.31;62.83
51715;BME280;39115;59.332;18.034;2023-02-18T13:55:03;98988.16;;;5.32;62.77
51715;BME280;39115;59.332;18.034;2023-02-18T13:57:26;98996.94;;;5.32;62.70
51715;BME280;39115;59.332;18.034;2023-02-18T13:59:56;99002.75;;;5.26;62.81
51715;BME280;39115;59.332;18.034;2023-02-18T14:09:45;99014.72;;;5.11;62.84
51715;BME280;39115;59.332;18.034;2023-02-18T14:14:44;99060.97;;;5.05;62.79
51715;BME280;39115;59.332;18.034;2023-02-18T14:19:38;99039.59;;;4.98;62.43
51715;BME280;39115;59.332;18.034;2023-02-18T14:24:56;99066.25;;;4.95;62.24
51715;BME280;39115;59.332;18.034;2023-02-18T14:27:16;99071.81;;;4.92;61.97
51715;BME280;39115;59.332;18.034;2023-02-18T14:29:38;99047.38;;;4.90;61.98
51715;BME280;39115;59.332;18.034;2023-02-18T14:32:00;99067.50;;;4.91;62.08
51715;BME280;39115;59.332;18.034;2023-02-18T14:35:03;99072.94;;;4.89;62.61
51715;BME280;39115;59.332;18.034;2023-02-18T14:40:40;99076.09;;;4.83;61.84
51715;BME280;39115;59.332;18.034;2023-02-18T14:43:23;99072.63;;;4.83;62.17
51715;BME280;39115;59.332;18.034;2023-02-18T14:50:49;99077.34;;;4.79;61.85
51715;BME280;39115;59.332;18.034;2023-02-18T14:53:19;99083.34;;;4.81;61.54